sensor_id;sensor_type;location;lat;lon;timestamp;P1;durP1;ratioP1;P2;durP2;ratioP2
14369;SDS011;7268;50.792;0.252;2024-03-06T00:01:57;7.00;;;2.22;;
14369;SDS011;7268;50.792;0.252;2024-03-06T00:04:24;5.45;;;1.95;;
14369;SDS011;7268;50.792;0.252;2024-03-06T00:06:51;6.43;;;2.53;;
14369;SDS011;7268;50.792;0.252;2024-03-06T00:09:19;7.28;;;1.70;;
14369;SDS011;7268;50.792;0.252;2024-03-06T00:11:46;5.47;;;1.83;;
14369;SDS011;7268;50.792;0.252;2024-03-06T00:14:13;1.90;;;1.33;;
14369;SDS011;7268;50.792;0.252;2024-03-06T00:16:40;3.28;;;1.30;;
14369;SDS011;7268;50.792;0.252;2024-03-06T00:19:08;5.15;;;2.35;;
14369;SDS011;7268;50.792;0.252;2024-03-06T00:21:35;7.25;;;2.00;;
14369;SDS011;7268;50.792;0.252;2024-03-06T00:24:05;6.50;;;2.45;;
14369;SDS011;7268;50.792;0.252;2024-03-06T00:26:32;5.65;;;2.45;;
14369;SDS011;7268;50.792;0.252;2024-03-06T00:28:59;6.72;;;1.98;;
14369;SDS011;7268;50.792;0.252;2024-03-06T00:31:26;4.55;;;1.88;;
14369;SDS011;7268;50.792;0.252;2024-03-06T00:33:53;4.47;;;2.15;;
14369;SDS011;7268;50.792;0.252;2024-03-06T00:36:19;5.47;;;2.03;;
14369;SDS011;7268;50.792;0.252;2024-03-06T00:38:48;4.60;;;1.58;;
14369;SDS011;7268;50.792;0.252;2024-03-06T00:41:15;3.33;;;1.55;;
14369;SDS011;7268;50.792;0.252;2024-03-06T00:43:42;4.47;;;2.05;;
14369;SDS011;7268;50.792;0.252;2024-03-06T00:46:09;6.43;;;2.00;;
14369;SDS011;7268;50.792;0.252;2024-03-06T00:48:36;6.72;;;2.13;;
14369;SDS011;7268;50.792;0.252;2024-03-06T00:51:07;7.05;;;2.22;;
14369;SDS011;7268;50.792;0.252;2024-03-06T00:53:34;4.88;;;1.77;;
14369;SDS011;7268;50.792;0.252;2024-03-06T00:56:02;4.32;;;1.67;;
14369;SDS011;7268;50.792;0.252;2024-03-06T00:58:29;2.90;;;1.13;;
14369;SDS011;7268;50.792;0.252;2024-03-06T01:00:56;5.57;;;2.28;;
14369;SDS011;7268;50.792;0.252;2024-03-06T01:03:24;7.05;;;3.15;;
14369;SDS011;7268;50.792;0.252;2024-03-06T01:05:51;6.68;;;2.42;;
14369;SDS011;7268;50.792;0.252;2024-03-06T01:08:21;4.80;;;1.98;;
14369;SDS011;7268;50.792;0.252;2024-03-06T01:10:51;7.55;;;2.85;;
14369;SDS011;7268;50.792;0.252;2024-03-06T01:13:18;8.57;;;2.38;;
14369;SDS011;7268;50.792;0.252;2024-03-06T01:15:46;4.10;;;1.25;;
14369;SDS011;7268;50.792;0.252;2024-03-06T01:18:13;5.30;;;2.60;;
14369;SDS011;7268;50.792;0.252;2024-03-06T01:20:49;5.90;;;2.95;;
14369;SDS011;7268;50.792;0.252;2024-03-06T01:23:16;7.53;;;3.78;;
14369;SDS011;7268;50.792;0.252;2024-03-06T01:25:43;5.18;;;2.47;;
14369;SDS011;7268;50.792;0.252;2024-03-06T01:28:10;6.45;;;2.55;;
14369;SDS011;7268;50.792;0.252;2024-03-06T01:30:37;4.40;;;2.53;;
14369;SDS011;7268;50.792;0.252;2024-03-06T01:33:04;6.03;;;2.55;;
14369;SDS011;7268;50.792;0.252;2024-03-06T01:35:31;5.38;;;2.63;;
14369;SDS011;7268;50.792;0.252;2024-03-06T03:40:26;8.35;;;4.43;;
14369;SDS011;7268;50.792;0.252;2024-03-06T03:42:54;8.85;;;3.17;;
14369;SDS011;7268;50.792;0.252;2024-03-06T03:45:20;8.18;;;3.25;;
14369;SDS011;7268;50.792;0.252;2024-03-06T03:47:47;8.65;;;3.50;;
14369;SDS011;7268;50.792;0.252;2024-03-06T03:50:14;8.70;;;3.80;;
14369;SDS011;7268;50.792;0.252;2024-03-06T03:52:41;7.88;;;3.15;;
14369;SDS011;7268;50.792;0.252;2024-03-06T03:55:10;10.73;;;5.32;;
14369;SDS011;7268;50.792;0.252;2024-03-06T03:57:37;7.90;;;3.10;;
14369;SDS011;7268;50.792;0.252;2024-03-06T04:00:04;9.90;;;3.83;;
14369;SDS011;7268;50.792;0.252;2024-03-06T04:02:37;4.18;;;1.77;;
14369;SDS011;7268;50.792;0.252;2024-03-06T04:05:04;8.27;;;3.78;;
14369;SDS011;7268;50.792;0.252;2024-03-06T04:07:31;8.25;;;3.38;;
14369;SDS011;7268;50.792;0.252;2024-03-06T04:09:58;8.68;;;2.92;;
14369;SDS011;7268;50.792;0.252;2024-03-06T04:12:25;8.45;;;3.20;;
14369;SDS011;7268;50.792;0.252;2024-03-06T04:14:52;10.25;;;4.47;;
14369;SDS011;7268;50.792;0.252;2024-03-06T04:17:19;9.30;;;3.65;;
14369;SDS011;7268;50.792;0.252;2024-03-06T04:19:46;7.07;;;2.63;;
14369;SDS011;7268;50.792;0.252;2024-03-06T04:22:16;6.10;;;2.42;;
14369;SDS011;7268;50.792;0.252;2024-03-06T04:24:45;7.25;;;2.65;;
14369;SDS011;7268;50.792;0.252;2024-03-06T04:27:12;8.60;;;3.80;;
14369;SDS011;7268;50.792;0.252;2024-03-06T04:29:39;9.35;;;4.18;;
14369;SDS011;7268;50.792;0.252;2024-03-06T04:32:06;6.65;;;3.13;;
14369;SDS011;7268;50.792;0.252;2024-03-06T04:34:33;9.00;;;2.60;;
14369;SDS011;7268;50.792;0.252;2024-03-06T04:37:00;8.50;;;3.88;;
14369;SDS011;7268;50.792;0.252;2024-03-06T04:41:54;5.03;;;2.72;;
14369;SDS011;7268;50.792;0.252;2024-03-06T04:44:21;7.07;;;1.90;;
14369;SDS011;7268;50.792;0.252;2024-03-06T04:46:51;6.20;;;2.05;;
14369;SDS011;7268;50.792;0.252;2024-03-06T04:49:18;6.18;;;2.05;;
14369;SDS011;7268;50.792;0.252;2024-03-06T04:51:45;8.13;;;2.33;;
14369;SDS011;7268;50.792;0.252;2024-03-06T04:54:12;8.85;;;2.80;;
14369;SDS011;7268;50.792;0.252;2024-03-06T04:56:39;6.70;;;2.60;;
14369;SDS011;7268;50.792;0.252;2024-03-06T04:59:05;6.32;;;3.63;;
14369;SDS011;7268;50.792;0.252;2024-03-06T05:01:32;6.95;;;3.40;;
14369;SDS011;7268;50.792;0.252;2024-03-06T05:03:59;8.20;;;2.75;;
14369;SDS011;7268;50.792;0.252;2024-03-06T05:06:44;6.85;;;2.72;;
14369;SDS011;7268;50.792;0.252;2024-03-06T05:09:28;5.68;;;2.28;;
14369;SDS011;7268;50.792;0.252;2024-03-06T05:12:13;5.35;;;2.30;;
14369;SDS011;7268;50.792;0.252;2024-03-06T05:14:57;5.68;;;2.13;;
14369;SDS011;7268;50.792;0.252;2024-03-06T05:17:41;4.55;;;1.58;;
14369;SDS011;7268;50.792;0.252;2024-03-06T05:20:27;7.35;;;3.50;;
14369;SDS011;7268;50.792;0.252;2024-03-06T05:23:14;9.45;;;3.22;;
14369;SDS011;7268;50.792;0.252;2024-03-06T05:26:01;6.25;;;2.78;;
14369;SDS011;7268;50.792;0.252;2024-03-06T05:28:45;8.40;;;3.13;;
14369;SDS011;7268;50.792;0.252;2024-03-06T05:31:29;10.18;;;3.08;;
14369;SDS011;7268;50.792;0.252;2024-03-06T05:34:14;6.43;;;3.17;;
14369;SDS011;7268;50.792;0.252;2024-03-06T05:36:58;8.27;;;2.47;;
14369;SDS011;7268;50.792;0.252;2024-03-06T05:39:42;10.90;;;3.58;;
14369;SDS011;7268;50.792;0.252;2024-03-06T05:42:26;9.00;;;3.25;;
14369;SDS011;7268;50.792;0.252;2024-03-06T05:45:11;5.97;;;2.47;;
14369;SDS011;7268;50.792;0.252;2024-03-06T05:47:56;5.40;;;1.88;;
14369;SDS011;7268;50.792;0.252;2024-03-06T05:50:40;9.45;;;2.63;;
14369;SDS011;7268;50.792;0.252;2024-03-06T05:53:24;5.70;;;2.55;;
14369;SDS011;7268;50.792;0.252;2024-03-06T05:56:09;4.43;;;2.67;;
14369;SDS011;7268;50.792;0.252;2024-03-06T05:58:54;8.82;;;2.53;;
14369;SDS011;7268;50.792;0.252;2024-03-06T06:01:21;7.90;;;2.75;;
14369;SDS011;7268;50.792;0.252;2024-03-06T06:03:48;10.25;;;4.38;;
14369;SDS011;7268;50.792;0.252;2024-03-06T06:06:16;8.50;;;3.10;;
14369;SDS011;7268;50.792;0.252;2024-03-06T06:08:45;7.63;;;2.80;;
14369;SDS011;7268;50.792;0.252;2024-03-06T06:11:12;10.05;;;3.05;;
14369;SDS011;7268;50.792;0.252;2024-03-06T06:13:39;8.68;;;3.50;;
14369;SDS011;7268;50.792;0.252;2024-03-06T06:16:06;12.05;;;4.85;;
14369;SDS011;7268;50.792;0.252;2024-03-06T06:18:33;6.88;;;2.53;;
14369;SDS011;7268;50.792;0.252;2024-03-06T06:21:00;9.90;;;3.20;;
14369;SDS011;7268;50.792;0.252;2024-03-06T06:23:27;11.27;;;3.97;;
14369;SDS011;7268;50.792;0.252;2024-03-06T06:25:54;7.68;;;1.98;;
14369;SDS011;7268;50.792;0.252;2024-03-06T06:28:22;10.35;;;2.58;;
14369;SDS011;7268;50.792;0.252;2024-03-06T06:30:49;10.07;;;4.03;;
14369;SDS011;7268;50.792;0.252;2024-03-06T06:33:18;5.82;;;2.15;;
14369;SDS011;7268;50.792;0.252;2024-03-06T06:35:47;5.78;;;2.67;;
14369;SDS011;7268;50.792;0.252;2024-03-06T06:38:14;7.35;;;3.33;;
14369;SDS011;7268;50.792;0.252;2024-03-06T06:40:41;9.13;;;2.85;;
14369;SDS011;7268;50.792;0.252;2024-03-06T06:43:08;9.45;;;3.10;;
14369;SDS011;7268;50.792;0.252;2024-03-06T06:45:35;8.40;;;3.15;;
14369;SDS011;7268;50.792;0.252;2024-03-06T06:48:04;7.50;;;3.33;;
14369;SDS011;7268;50.792;0.252;2024-03-06T06:50:31;6.85;;;2.50;;
14369;SDS011;7268;50.792;0.252;2024-03-06T06:53:00;6.18;;;2.75;;
14369;SDS011;7268;50.792;0.252;2024-03-06T06:55:27;8.93;;;3.13;;
14369;SDS011;7268;50.792;0.252;2024-03-06T06:57:54;6.05;;;3.42;;
14369;SDS011;7268;50.792;0.252;2024-03-06T07:00:22;10.93;;;3.90;;
14369;SDS011;7268;50.792;0.252;2024-03-06T07:02:49;11.00;;;4.93;;
14369;SDS011;7268;50.792;0.252;2024-03-06T07:05:17;14.38;;;5.40;;
14369;SDS011;7268;50.792;0.252;2024-03-06T07:07:45;14.50;;;5.35;;
14369;SDS011;7268;50.792;0.252;2024-03-06T07:10:12;13.35;;;4.03;;
14369;SDS011;7268;50.792;0.252;2024-03-06T07:12:40;11.90;;;4.60;;
14369;SDS011;7268;50.792;0.252;2024-03-06T07:15:07;15.15;;;6.03;;
14369;SDS011;7268;50.792;0.252;2024-03-06T07:17:34;12.48;;;4.68;;
14369;SDS011;7268;50.792;0.252;2024-03-06T07:20:02;11.43;;;4.35;;
14369;SDS011;7268;50.792;0.252;2024-03-06T07:22:31;8.95;;;4.40;;
14369;SDS011;7268;50.792;0.252;2024-03-06T07:25:00;6.90;;;3.33;;
14369;SDS011;7268;50.792;0.252;2024-03-06T07:27:31;9.00;;;4.18;;
14369;SDS011;7268;50.792;0.252;2024-03-06T07:29:58;8.20;;;4.47;;
14369;SDS011;7268;50.792;0.252;2024-03-06T07:32:25;13.35;;;5.95;;
14369;SDS011;7268;50.792;0.252;2024-03-06T07:34:52;9.57;;;4.55;;
14369;SDS011;7268;50.792;0.252;2024-03-06T07:37:19;12.52;;;4.85;;
14369;SDS011;7268;50.792;0.252;2024-03-06T07:39:46;17.88;;;5.72;;
14369;SDS011;7268;50.792;0.252;2024-03-06T07:42:15;17.58;;;7.35;;
14369;SDS011;7268;50.792;0.252;2024-03-06T07:44:44;15.63;;;5.30;;
14369;SDS011;7268;50.792;0.252;2024-03-06T07:47:11;14.10;;;5.25;;
14369;SDS011;7268;50.792;0.252;2024-03-06T07:49:38;12.18;;;4.70;;
14369;SDS011;7268;50.792;0.252;2024-03-06T07:52:05;11.63;;;5.40;;
14369;SDS011;7268;50.792;0.252;2024-03-06T07:54:32;10.20;;;4.70;;
14369;SDS011;7268;50.792;0.252;2024-03-06T07:56:59;11.48;;;4.72;;
14369;SDS011;7268;50.792;0.252;2024-03-06T07:59:26;12.25;;;5.22;;
14369;SDS011;7268;50.792;0.252;2024-03-06T08:01:53;9.93;;;4.70;;
14369;SDS011;7268;50.792;0.252;2024-03-06T08:04:22;12.73;;;5.40;;
14369;SDS011;7268;50.792;0.252;2024-03-06T08:06:49;12.20;;;4.70;;
14369;SDS011;7268;50.792;0.252;2024-03-06T08:09:16;9.10;;;3.83;;
14369;SDS011;7268;50.792;0.252;2024-03-06T08:11:43;8.93;;;4.18;;
14369;SDS011;7268;50.792;0.252;2024-03-06T08:14:10;10.60;;;4.30;;
14369;SDS011;7268;50.792;0.252;2024-03-06T08:16:37;10.80;;;4.32;;
14369;SDS011;7268;50.792;0.252;2024-03-06T08:19:04;11.30;;;4.57;;
14369;SDS011;7268;50.792;0.252;2024-03-06T08:21:31;10.38;;;4.18;;
14369;SDS011;7268;50.792;0.252;2024-03-06T08:23:57;10.65;;;3.55;;
14369;SDS011;7268;50.792;0.252;2024-03-06T08:26:24;8.05;;;3.85;;
14369;SDS011;7268;50.792;0.252;2024-03-06T08:28:51;8.73;;;3.60;;
14369;SDS011;7268;50.792;0.252;2024-03-06T08:31:19;8.23;;;2.60;;
14369;SDS011;7268;50.792;0.252;2024-03-06T08:33:48;7.88;;;3.65;;
14369;SDS011;7268;50.792;0.252;2024-03-06T08:36:15;10.48;;;3.50;;
14369;SDS011;7268;50.792;0.252;2024-03-06T08:38:42;7.53;;;2.80;;
14369;SDS011;7268;50.792;0.252;2024-03-06T08:41:08;9.15;;;3.75;;
14369;SDS011;7268;50.792;0.252;2024-03-06T08:43:35;9.48;;;3.67;;
14369;SDS011;7268;50.792;0.252;2024-03-06T08:46:02;12.07;;;4.05;;
14369;SDS011;7268;50.792;0.252;2024-03-06T08:48:29;13.35;;;4.30;;
14369;SDS011;7268;50.792;0.252;2024-03-06T08:50:57;11.95;;;4.60;;
14369;SDS011;7268;50.792;0.252;2024-03-06T08:53:24;11.90;;;3.72;;
14369;SDS011;7268;50.792;0.252;2024-03-06T08:55:51;13.80;;;4.78;;
14369;SDS011;7268;50.792;0.252;2024-03-06T08:58:18;13.40;;;4.88;;
14369;SDS011;7268;50.792;0.252;2024-03-06T09:00:46;11.82;;;4.75;;
14369;SDS011;7268;50.792;0.252;2024-03-06T09:03:15;10.63;;;3.60;;
14369;SDS011;7268;50.792;0.252;2024-03-06T09:05:42;10.43;;;4.25;;
14369;SDS011;7268;50.792;0.252;2024-03-06T09:08:09;9.77;;;4.68;;
14369;SDS011;7268;50.792;0.252;2024-03-06T09:10:36;9.93;;;3.72;;
14369;SDS011;7268;50.792;0.252;2024-03-06T09:13:03;8.82;;;4.20;;
14369;SDS011;7268;50.792;0.252;2024-03-06T09:15:30;14.05;;;4.60;;
14369;SDS011;7268;50.792;0.252;2024-03-06T09:17:57;12.15;;;3.92;;
14369;SDS011;7268;50.792;0.252;2024-03-06T09:20:24;10.27;;;5.03;;
14369;SDS011;7268;50.792;0.252;2024-03-06T09:22:52;7.57;;;3.35;;
14369;SDS011;7268;50.792;0.252;2024-03-06T09:25:23;7.47;;;3.05;;
14369;SDS011;7268;50.792;0.252;2024-03-06T09:27:55;11.65;;;4.38;;
14369;SDS011;7268;50.792;0.252;2024-03-06T09:30:22;12.07;;;4.18;;
14369;SDS011;7268;50.792;0.252;2024-03-06T09:32:48;12.15;;;5.15;;
14369;SDS011;7268;50.792;0.252;2024-03-06T09:35:15;13.35;;;4.65;;
14369;SDS011;7268;50.792;0.252;2024-03-06T09:37:44;13.68;;;5.45;;
14369;SDS011;7268;50.792;0.252;2024-03-06T09:40:19;9.20;;;4.93;;
14369;SDS011;7268;50.792;0.252;2024-03-06T09:42:50;10.63;;;5.47;;
14369;SDS011;7268;50.792;0.252;2024-03-06T09:45:18;11.55;;;4.55;;
14369;SDS011;7268;50.792;0.252;2024-03-06T09:47:46;8.85;;;3.25;;
14369;SDS011;7268;50.792;0.252;2024-03-06T09:50:16;8.93;;;4.60;;
14369;SDS011;7268;50.792;0.252;2024-03-06T09:52:48;13.30;;;4.63;;
14369;SDS011;7268;50.792;0.252;2024-03-06T09:55:19;11.98;;;5.05;;
14369;SDS011;7268;50.792;0.252;2024-03-06T09:57:46;14.38;;;5.50;;
14369;SDS011;7268;50.792;0.252;2024-03-06T10:02:51;7.75;;;3.30;;
14369;SDS011;7268;50.792;0.252;2024-03-06T10:05:24;11.40;;;4.57;;
14369;SDS011;7268;50.792;0.252;2024-03-06T10:07:51;9.82;;;3.90;;
14369;SDS011;7268;50.792;0.252;2024-03-06T10:10:19;13.95;;;5.00;;
14369;SDS011;7268;50.792;0.252;2024-03-06T10:12:49;10.25;;;4.30;;
14369;SDS011;7268;50.792;0.252;2024-03-06T10:15:16;9.27;;;3.63;;
14369;SDS011;7268;50.792;0.252;2024-03-06T10:17:43;10.63;;;3.85;;
14369;SDS011;7268;50.792;0.252;2024-03-06T10:20:20;10.90;;;3.58;;
14369;SDS011;7268;50.792;0.252;2024-03-06T10:22:52;10.50;;;3.15;;
14369;SDS011;7268;50.792;0.252;2024-03-06T10:25:24;6.68;;;2.60;;
14369;SDS011;7268;50.792;0.252;2024-03-06T10:30:33;8.23;;;2.65;;
14369;SDS011;7268;50.792;0.252;2024-03-06T10:33:02;8.00;;;2.88;;
14369;SDS011;7268;50.792;0.252;2024-03-06T10:35:30;8.40;;;3.33;;
14369;SDS011;7268;50.792;0.252;2024-03-06T10:37:58;6.72;;;2.85;;
14369;SDS011;7268;50.792;0.252;2024-03-06T10:40:48;8.43;;;3.38;;
14369;SDS011;7268;50.792;0.252;2024-03-06T10:43:17;6.45;;;3.78;;
14369;SDS011;7268;50.792;0.252;2024-03-06T10:45:49;8.65;;;3.15;;
14369;SDS011;7268;50.792;0.252;2024-03-06T10:48:17;7.15;;;2.25;;
14369;SDS011;7268;50.792;0.252;2024-03-06T10:50:45;6.65;;;2.20;;
14369;SDS011;7268;50.792;0.252;2024-03-06T10:53:15;7.85;;;2.67;;
14369;SDS011;7268;50.792;0.252;2024-03-06T10:55:49;7.53;;;2.83;;
14369;SDS011;7268;50.792;0.252;2024-03-06T10:58:17;6.57;;;2.50;;
14369;SDS011;7268;50.792;0.252;2024-03-06T11:00:46;7.10;;;2.22;;
14369;SDS011;7268;50.792;0.252;2024-03-06T11:03:14;5.80;;;2.17;;
14369;SDS011;7268;50.792;0.252;2024-03-06T11:05:43;7.57;;;2.58;;
14369;SDS011;7268;50.792;0.252;2024-03-06T11:08:14;6.53;;;2.55;;
14369;SDS011;7268;50.792;0.252;2024-03-06T11:10:43;7.72;;;2.50;;
14369;SDS011;7268;50.792;0.252;2024-03-06T11:15:47;7.60;;;2.72;;
14369;SDS011;7268;50.792;0.252;2024-03-06T11:23:30;8.50;;;3.20;;
14369;SDS011;7268;50.792;0.252;2024-03-06T11:26:04;6.10;;;2.65;;
14369;SDS011;7268;50.792;0.252;2024-03-06T11:28:33;5.50;;;2.17;;
14369;SDS011;7268;50.792;0.252;2024-03-06T11:31:04;9.88;;;2.80;;
14369;SDS011;7268;50.792;0.252;2024-03-06T11:36:20;4.30;;;1.60;;
14369;SDS011;7268;50.792;0.252;2024-03-06T11:38:56;4.28;;;1.63;;
14369;SDS011;7268;50.792;0.252;2024-03-06T11:41:24;4.70;;;1.52;;
14369;SDS011;7268;50.792;0.252;2024-03-06T11:43:53;4.10;;;1.63;;
14369;SDS011;7268;50.792;0.252;2024-03-06T11:46:22;4.07;;;1.52;;
14369;SDS011;7268;50.792;0.252;2024-03-06T11:49:13;2.15;;;0.93;;
14369;SDS011;7268;50.792;0.252;2024-03-06T11:51:42;2.67;;;0.65;;
14369;SDS011;7268;50.792;0.252;2024-03-06T11:54:12;3.78;;;0.63;;
14369;SDS011;7268;50.792;0.252;2024-03-06T11:56:39;3.63;;;0.80;;
14369;SDS011;7268;50.792;0.252;2024-03-06T11:59:07;3.67;;;0.80;;
14369;SDS011;7268;50.792;0.252;2024-03-06T12:01:40;1.80;;;0.68;;
14369;SDS011;7268;50.792;0.252;2024-03-06T12:04:07;3.50;;;1.65;;
14369;SDS011;7268;50.792;0.252;2024-03-06T12:06:34;5.55;;;2.30;;
14369;SDS011;7268;50.792;0.252;2024-03-06T12:09:01;4.90;;;2.17;;
14369;SDS011;7268;50.792;0.252;2024-03-06T12:11:30;5.03;;;1.63;;
14369;SDS011;7268;50.792;0.252;2024-03-06T12:13:57;6.40;;;2.42;;
14369;SDS011;7268;50.792;0.252;2024-03-06T12:16:24;6.38;;;1.80;;
14369;SDS011;7268;50.792;0.252;2024-03-06T12:18:55;6.50;;;2.63;;
14369;SDS011;7268;50.792;0.252;2024-03-06T12:26:30;4.10;;;1.25;;
14369;SDS011;7268;50.792;0.252;2024-03-06T12:29:07;2.35;;;1.02;;
14369;SDS011;7268;50.792;0.252;2024-03-06T12:31:36;2.45;;;0.75;;
14369;SDS011;7268;50.792;0.252;2024-03-06T12:34:04;4.13;;;1.58;;
14369;SDS011;7268;50.792;0.252;2024-03-06T12:36:32;2.67;;;1.05;;
14369;SDS011;7268;50.792;0.252;2024-03-06T12:39:01;2.95;;;1.02;;
14369;SDS011;7268;50.792;0.252;2024-03-06T12:41:29;1.75;;;0.63;;
14369;SDS011;7268;50.792;0.252;2024-03-06T12:46:24;2.60;;;1.13;;
14369;SDS011;7268;50.792;0.252;2024-03-06T12:48:52;2.67;;;0.60;;
14369;SDS011;7268;50.792;0.252;2024-03-06T12:51:19;3.97;;;0.63;;
14369;SDS011;7268;50.792;0.252;2024-03-06T12:53:46;3.10;;;0.60;;
14369;SDS011;7268;50.792;0.252;2024-03-06T12:58:41;2.38;;;0.93;;
14369;SDS011;7268;50.792;0.252;2024-03-06T13:01:08;2.72;;;0.95;;
14369;SDS011;7268;50.792;0.252;2024-03-06T13:03:36;2.15;;;0.73;;
14369;SDS011;7268;50.792;0.252;2024-03-06T13:06:04;2.40;;;0.75;;
14369;SDS011;7268;50.792;0.252;2024-03-06T13:08:31;3.17;;;1.25;;
14369;SDS011;7268;50.792;0.252;2024-03-06T13:11:01;3.90;;;1.23;;
14369;SDS011;7268;50.792;0.252;2024-03-06T13:13:28;2.88;;;0.63;;
14369;SDS011;7268;50.792;0.252;2024-03-06T13:15:59;3.20;;;1.27;;
14369;SDS011;7268;50.792;0.252;2024-03-06T13:18:33;5.90;;;1.63;;
14369;SDS011;7268;50.792;0.252;2024-03-06T13:21:00;5.07;;;1.63;;
14369;SDS011;7268;50.792;0.252;2024-03-06T13:23:28;3.03;;;1.13;;
14369;SDS011;7268;50.792;0.252;2024-03-06T13:25:55;4.18;;;1.10;;
14369;SDS011;7268;50.792;0.252;2024-03-06T13:28:22;2.72;;;1.02;;
14369;SDS011;7268;50.792;0.252;2024-03-06T13:30:49;2.95;;;1.08;;
14369;SDS011;7268;50.792;0.252;2024-03-06T13:33:16;5.03;;;1.30;;
14369;SDS011;7268;50.792;0.252;2024-03-06T13:35:44;2.03;;;0.60;;
14369;SDS011;7268;50.792;0.252;2024-03-06T13:38:11;2.88;;;0.88;;
14369;SDS011;7268;50.792;0.252;2024-03-06T13:40:38;3.65;;;1.30;;
14369;SDS011;7268;50.792;0.252;2024-03-06T13:43:06;6.28;;;2.22;;
14369;SDS011;7268;50.792;0.252;2024-03-06T13:48:01;2.55;;;0.82;;
14369;SDS011;7268;50.792;0.252;2024-03-06T13:50:28;3.05;;;1.10;;
14369;SDS011;7268;50.792;0.252;2024-03-06T13:52:55;3.88;;;1.50;;
14369;SDS011;7268;50.792;0.252;2024-03-06T13:55:22;5.50;;;1.65;;
14369;SDS011;7268;50.792;0.252;2024-03-06T13:57:49;2.38;;;1.08;;
14369;SDS011;7268;50.792;0.252;2024-03-06T14:00:16;2.58;;;1.08;;
14369;SDS011;7268;50.792;0.252;2024-03-06T14:02:44;2.50;;;0.60;;
14369;SDS011;7268;50.792;0.252;2024-03-06T14:05:12;4.28;;;1.02;;
14369;SDS011;7268;50.792;0.252;2024-03-06T14:07:41;4.30;;;1.95;;
14369;SDS011;7268;50.792;0.252;2024-03-06T14:10:08;4.05;;;1.85;;
14369;SDS011;7268;50.792;0.252;2024-03-06T14:12:37;3.30;;;0.88;;
14369;SDS011;7268;50.792;0.252;2024-03-06T14:15:05;4.80;;;1.80;;
14369;SDS011;7268;50.792;0.252;2024-03-06T14:17:35;4.15;;;1.52;;
14369;SDS011;7268;50.792;0.252;2024-03-06T14:20:02;3.10;;;0.90;;
14369;SDS011;7268;50.792;0.252;2024-03-06T14:22:30;2.97;;;0.70;;
14369;SDS011;7268;50.792;0.252;2024-03-06T14:24:57;3.70;;;1.40;;
14369;SDS011;7268;50.792;0.252;2024-03-06T14:27:26;3.53;;;0.98;;
14369;SDS011;7268;50.792;0.252;2024-03-06T14:29:53;3.20;;;0.95;;
14369;SDS011;7268;50.792;0.252;2024-03-06T14:32:20;3.67;;;1.40;;
14369;SDS011;7268;50.792;0.252;2024-03-06T14:34:48;2.90;;;1.02;;
14369;SDS011;7268;50.792;0.252;2024-03-06T14:37:15;4.30;;;1.83;;
14369;SDS011;7268;50.792;0.252;2024-03-06T14:39:42;3.22;;;1.30;;
14369;SDS011;7268;50.792;0.252;2024-03-06T14:42:09;3.05;;;1.23;;
14369;SDS011;7268;50.792;0.252;2024-03-06T14:44:36;3.70;;;1.10;;
14369;SDS011;7268;50.792;0.252;2024-03-06T14:47:03;3.47;;;1.65;;
14369;SDS011;7268;50.792;0.252;2024-03-06T14:49:32;2.05;;;1.08;;
14369;SDS011;7268;50.792;0.252;2024-03-06T14:51:59;2.85;;;1.15;;
14369;SDS011;7268;50.792;0.252;2024-03-06T14:54:26;2.22;;;0.80;;
14369;SDS011;7268;50.792;0.252;2024-03-06T14:56:53;5.93;;;2.13;;
14369;SDS011;7268;50.792;0.252;2024-03-06T14:59:21;3.13;;;0.90;;
14369;SDS011;7268;50.792;0.252;2024-03-06T15:01:48;6.03;;;1.35;;
14369;SDS011;7268;50.792;0.252;2024-03-06T15:04:16;4.47;;;1.25;;
14369;SDS011;7268;50.792;0.252;2024-03-06T15:06:45;3.63;;;0.90;;
14369;SDS011;7268;50.792;0.252;2024-03-06T15:09:12;3.13;;;1.13;;
14369;SDS011;7268;50.792;0.252;2024-03-06T15:11:42;3.38;;;1.00;;
14369;SDS011;7268;50.792;0.252;2024-03-06T15:14:09;1.77;;;0.77;;
14369;SDS011;7268;50.792;0.252;2024-03-06T15:16:36;3.28;;;0.88;;
14369;SDS011;7268;50.792;0.252;2024-03-06T15:19:06;1.63;;;0.93;;
14369;SDS011;7268;50.792;0.252;2024-03-06T15:21:33;3.38;;;0.95;;
14369;SDS011;7268;50.792;0.252;2024-03-06T15:24:00;2.63;;;0.55;;
14369;SDS011;7268;50.792;0.252;2024-03-06T15:26:31;3.53;;;1.38;;
14369;SDS011;7268;50.792;0.252;2024-03-06T15:28:58;1.70;;;0.57;;
14369;SDS011;7268;50.792;0.252;2024-03-06T15:33:52;3.40;;;0.40;;
14369;SDS011;7268;50.792;0.252;2024-03-06T15:36:19;3.17;;;0.95;;
14369;SDS011;7268;50.792;0.252;2024-03-06T15:38:47;1.92;;;0.90;;
14369;SDS011;7268;50.792;0.252;2024-03-06T15:41:14;2.45;;;1.02;;
14369;SDS011;7268;50.792;0.252;2024-03-06T15:43:41;1.45;;;0.38;;
14369;SDS011;7268;50.792;0.252;2024-03-06T15:46:09;4.55;;;0.40;;
14369;SDS011;7268;50.792;0.252;2024-03-06T15:48:36;1.95;;;0.68;;
14369;SDS011;7268;50.792;0.252;2024-03-06T15:51:03;1.38;;;0.43;;
14369;SDS011;7268;50.792;0.252;2024-03-06T15:53:32;1.13;;;0.20;;
14369;SDS011;7268;50.792;0.252;2024-03-06T15:55:59;1.33;;;0.20;;
14369;SDS011;7268;50.792;0.252;2024-03-06T15:58:26;1.13;;;0.17;;
14369;SDS011;7268;50.792;0.252;2024-03-06T16:00:52;1.27;;;1.13;;
14369;SDS011;7268;50.792;0.252;2024-03-06T16:03:26;0.93;;;0.35;;
14369;SDS011;7268;50.792;0.252;2024-03-06T16:05:53;0.63;;;0.30;;
14369;SDS011;7268;50.792;0.252;2024-03-06T16:08:36;1.45;;;0.52;;
14369;SDS011;7268;50.792;0.252;2024-03-06T16:11:04;1.15;;;0.32;;
14369;SDS011;7268;50.792;0.252;2024-03-06T16:13:33;1.20;;;0.40;;
14369;SDS011;7268;50.792;0.252;2024-03-06T16:16:00;0.85;;;0.45;;
14369;SDS011;7268;50.792;0.252;2024-03-06T16:18:27;3.22;;;0.65;;
14369;SDS011;7268;50.792;0.252;2024-03-06T16:20:53;0.88;;;0.28;;
14369;SDS011;7268;50.792;0.252;2024-03-06T16:23:21;1.90;;;0.38;;
14369;SDS011;7268;50.792;0.252;2024-03-06T16:25:48;1.13;;;0.68;;
14369;SDS011;7268;50.792;0.252;2024-03-06T16:28:17;0.73;;;0.30;;
14369;SDS011;7268;50.792;0.252;2024-03-06T16:30:44;1.15;;;0.35;;
14369;SDS011;7268;50.792;0.252;2024-03-06T16:33:12;1.30;;;0.50;;
14369;SDS011;7268;50.792;0.252;2024-03-06T16:35:39;2.20;;;0.22;;
14369;SDS011;7268;50.792;0.252;2024-03-06T16:38:06;4.15;;;0.30;;
14369;SDS011;7268;50.792;0.252;2024-03-06T16:40:35;1.27;;;0.57;;
14369;SDS011;7268;50.792;0.252;2024-03-06T16:43:02;1.42;;;1.02;;
14369;SDS011;7268;50.792;0.252;2024-03-06T16:45:29;1.63;;;0.85;;
14369;SDS011;7268;50.792;0.252;2024-03-06T16:47:56;1.40;;;0.73;;
14369;SDS011;7268;50.792;0.252;2024-03-06T16:50:27;2.78;;;0.73;;
14369;SDS011;7268;50.792;0.252;2024-03-06T16:52:54;2.70;;;0.32;;
14369;SDS011;7268;50.792;0.252;2024-03-06T16:55:23;1.02;;;0.88;;
14369;SDS011;7268;50.792;0.252;2024-03-06T16:57:51;2.38;;;0.43;;
14369;SDS011;7268;50.792;0.252;2024-03-06T17:00:18;1.15;;;0.43;;
14369;SDS011;7268;50.792;0.252;2024-03-06T17:02:45;0.77;;;0.35;;
14369;SDS011;7268;50.792;0.252;2024-03-06T17:05:12;1.35;;;0.30;;
14369;SDS011;7268;50.792;0.252;2024-03-06T17:07:40;3.28;;;0.90;;
14369;SDS011;7268;50.792;0.252;2024-03-06T17:10:08;1.05;;;0.50;;
14369;SDS011;7268;50.792;0.252;2024-03-06T17:12:35;1.70;;;0.63;;
14369;SDS011;7268;50.792;0.252;2024-03-06T17:15:02;1.00;;;0.35;;
14369;SDS011;7268;50.792;0.252;2024-03-06T17:17:30;1.25;;;0.35;;
14369;SDS011;7268;50.792;0.252;2024-03-06T17:19:56;1.98;;;0.82;;
14369;SDS011;7268;50.792;0.252;2024-03-06T17:22:24;1.13;;;0.50;;
14369;SDS011;7268;50.792;0.252;2024-03-06T17:24:51;1.02;;;0.43;;
14369;SDS011;7268;50.792;0.252;2024-03-06T17:27:22;1.25;;;0.40;;
14369;SDS011;7268;50.792;0.252;2024-03-06T17:29:49;1.15;;;0.32;;
14369;SDS011;7268;50.792;0.252;2024-03-06T17:32:16;2.58;;;0.50;;
14369;SDS011;7268;50.792;0.252;2024-03-06T17:34:48;4.43;;;0.57;;
14369;SDS011;7268;50.792;0.252;2024-03-06T17:37:16;1.00;;;0.20;;
14369;SDS011;7268;50.792;0.252;2024-03-06T17:39:43;1.55;;;0.40;;
14369;SDS011;7268;50.792;0.252;2024-03-06T17:42:10;0.95;;;0.73;;
14369;SDS011;7268;50.792;0.252;2024-03-06T17:44:37;0.90;;;0.32;;